Flight Track Log - Related Links

Times and Time Zones

All times are in EDT time to prevent confusion due to time zone crossing. See the TAM3735 flight status page for this flight to view local times or setup timezone preferences in your user account.

Time Position Orientation Groundspeed Altitude Reporting Facility
EDT Latitude Longitude Course Direction KTS MPH feet Rate Location/Type
05:39PM -19.6410 -43.9620 270° West 86 99  Level FlightAware
05:39PM -19.6320 -43.9700 320° Northwest 155 178 4,800 Level FlightAware
05:40PM -19.6200 -43.9810 319° Northwest 166 191 3,200 4,979 Climbing FlightAware
05:40PM -19.6050 -43.9950 319° Northwest 187 215 3,900 1,600 Climbing FlightAware
05:40PM -19.5910 -44.0090 317° Northwest 212 244 4,400 1,895 Climbing FlightAware
05:41PM -19.5770 -44.0240 315° West 234 269 5,100 2,250 Climbing FlightAware
05:41PM -19.5610 -44.0430 312° West 259 298 5,900 2,571 Climbing FlightAware
05:41PM -19.5480 -44.0570 315° West 273 314 6,600 2,700 Climbing FlightAware
05:41PM -19.5450 -44.0600 317° Northwest 274 315 6,800 4,000 Climbing FlightAware
05:42PM -19.5330 -44.0660 335° Northwest 270 311 7,600 4,125 Climbing FlightAware
05:42PM -19.5280 -44.0680 339° North 267 307 7,900 4,200 Climbing FlightAware
05:42PM -19.5210 -44.0680 360° North 264 304 8,300 4,759 Climbing FlightAware
05:42PM -19.4940 -44.0580 19° North 249 287 10,200 4,114 Climbing FlightAware
05:42PM -19.4860 -44.0480 50° Northeast 252 290 10,700 2,700 Climbing FlightAware
05:42PM -19.4800 -44.0360 62° Northeast 259 298 11,100 2,100 Climbing FlightAware
05:43PM -19.4790 -44.0230 85° East 268 308 11,400 1,600 Climbing FlightAware
05:43PM -19.4880 -43.9980 111° Southeast 293 337 11,900 1,400 Climbing FlightAware
05:43PM -19.4970 -43.9890 137° Southeast 305 351 12,100 1,440 Climbing FlightAware
05:44PM -19.5530 -43.9580 152° Southeast 352 405 13,100 2,123 Climbing FlightAware
05:44PM -19.5900 -43.9440 160° South 354 407 14,400 3,700 Climbing FlightAware
05:45PM -19.6460 -43.9460 182° South 332 382 16,800 3,514 Climbing FlightAware
05:45PM -19.7000 -43.9480 182° South 330 380 18,500 2,657 Climbing FlightAware
05:46PM -19.7550 -43.9490 181° South 338 389 19,900 2,229 Climbing FlightAware
05:47PM -19.8090 -43.9510 182° South 347 399 21,100 2,167 Climbing FlightAware
05:47PM -19.8650 -43.9550 184° South 346 398 22,500 2,400 Climbing FlightAware
05:48PM -19.9200 -43.9620 187° South 342 394 23,900 2,029 Climbing FlightAware
05:48PM -19.9780 -43.9690 186° South 356 410 24,800 1,629 Climbing FlightAware
05:49PM -20.0380 -43.9760 186° South 366 421 25,800 1,800 Climbing FlightAware
05:49PM -20.0950 -43.9820 186° South 370 426 26,900 1,457 Climbing FlightAware
05:50PM -20.1580 -43.9890 186° South 390 449 27,500 1,029 Climbing FlightAware
05:51PM -20.2230 -43.9970 187° South 409 471 28,100 1,235 Climbing FlightAware
05:51PM -20.2850 -44.0040 186° South 419 482 28,900 1,562 Climbing FlightAware
05:52PM -20.3630 -44.0130 186° South 413 475 30,000 943 Climbing FlightAware
05:52PM -20.4200 -44.0190 186° South 409 471 30,000  Level FlightAware
05:53PM -20.4870 -44.0270 186° South 414 476 30,000  Level FlightAware
05:54PM -20.5620 -44.0350 186° South 416 479 30,000  Level FlightAware
05:54PM -20.6300 -44.0430 186° South 414 476 30,000  Level FlightAware
05:55PM -20.6870 -44.0500 187° South 413 475 30,000  Level FlightAware
05:55PM -20.7540 -44.0570 186° South 414 476 30,000  Level FlightAware
05:56PM -20.8240 -44.0650 186° South 414 476 30,000  Level FlightAware
05:56PM -20.8930 -44.0730 186° South 415 478 30,000  Level FlightAware
05:57PM -20.9610 -44.0810 186° South 415 478 30,000  Level FlightAware
05:58PM -21.0280 -44.0890 186° South 415 478 30,000  Level FlightAware
05:58PM -21.0940 -44.0960 186° South 414 476 30,000  Level FlightAware
05:59PM -21.1600 -44.1040 186° South 413 475 30,000  Level FlightAware
06:00PM -21.2500 -44.1140 186° South 412 474 30,000  Level FlightAware
06:00PM -21.3200 -44.1220 186° South 412 474 30,000  Level FlightAware
06:01PM -21.3870 -44.1300 186° South 412 474 30,000  Level FlightAware
06:01PM -21.4500 -44.1370 186° South 412 474 30,000  Level FlightAware
06:02PM -21.5200 -44.1450 186° South 413 475 30,000  Level FlightAware
06:03PM -21.5870 -44.1530 186° South 414 476 30,000  Level FlightAware
06:03PM -21.6550 -44.1610 186° South 416 479 30,000  Level FlightAware
06:04PM -21.7200 -44.1680 186° South 417 480 30,000  Level FlightAware
06:05PM -21.8140 -44.1790 186° South 417 480 30,000  Level FlightAware
06:05PM -21.8730 -44.1860 186° South 417 480 30,000  Level FlightAware
06:06PM -21.9280 -44.1920 186° South 417 480 30,000 -3,136 Level FlightAware
06:06PM -21.9660 -44.1650 147° Southeast 422 486 27,700 -3,136 Descending FlightAware
06:07PM -22.0040 -44.1390 148° Southeast 424 488 27,700  Level FlightAware
06:07PM -22.0540 -44.1030 146° Southeast 424 488 27,700 -2,866 Level FlightAware
06:08PM -22.1320 -44.0550 150° Southeast 422 486 24,500 -2,824 Descending FlightAware
06:08PM -22.1840 -44.0190 147° Southeast 422 486 24,500 -2,154 Level FlightAware
06:09PM -22.2700 -43.9630 149° Southeast 406 467 21,700 -3,158 Descending FlightAware
06:10PM -22.3250 -43.9250 147° Southeast 398 458 20,500 -1,971 Descending FlightAware
06:10PM -22.3800 -43.8890 149° Southeast 392 451 19,400 -1,846 Descending FlightAware
06:11PM -22.4260 -43.8590 149° Southeast 388 447 18,500 -1,680 Descending FlightAware
06:11PM -22.4950 -43.8210 153° Southeast 375 432 17,300 -1,553 Descending FlightAware
06:12PM -22.5580 -43.7930 158° South 361 415 16,300 -1,680 Descending FlightAware
06:13PM -22.6140 -43.7680 158° South 355 409 15,200 -1,662 Descending FlightAware
06:13PM -22.6560 -43.7480 156° South 343 395 14,500 -1,385 Descending FlightAware
06:14PM -22.7090 -43.7240 157° South 343 395 13,700 -1,360 Descending FlightAware
06:14PM -22.7670 -43.6970 157° South 334 384 12,800 -1,114 Descending FlightAware
06:15PM -22.8080 -43.6780 157° South 313 360 12,400 -646 Descending FlightAware
06:15PM -22.8540 -43.6570 157° South 309 356 12,100 -686 Descending FlightAware
06:16PM -22.8990 -43.6350 156° South 303 349 11,600 -1,200 Descending FlightAware
06:17PM -22.9500 -43.6100 156° South 298 343 10,600 -1,500 Descending FlightAware
06:17PM -22.9720 -43.5970 151° Southeast 298 343 10,100 -1,615 Descending FlightAware
06:17PM -22.9790 -43.5900 137° Southeast 300 345 9,900 -1,500 Descending FlightAware
06:17PM -22.9860 -43.5780 122° Southeast 298 343 9,700 -1,286 Descending FlightAware
06:17PM -22.9880 -43.5700 105° East 297 342 9,600 -1,200 Descending FlightAware
06:17PM -22.9890 -43.5630 99° East 297 342 9,500 -1,500 Descending FlightAware
06:18PM -22.9880 -43.5480 86° East 296 341 9,200 -1,714 Descending FlightAware
06:18PM -22.9860 -43.5410 73° East 294 338 9,100 -2,143 Descending FlightAware
06:18PM -22.9790 -43.5280 60° Northeast 294 338 8,700 -2,600 Descending FlightAware
06:18PM -22.9630 -43.5050 53° Northeast 295 339 7,800 -2,488 Descending FlightAware
06:19PM -22.9460 -43.4810 52° Northeast 294 338 7,000 -2,250 Descending FlightAware
06:19PM -22.9310 -43.4580 55° Northeast 288 331 6,300 -1,941 Descending FlightAware
06:19PM -22.9180 -43.4410 50° Northeast 281 323 5,900 -1,371 Descending FlightAware
06:19PM -22.9030 -43.4190 53° Northeast 263 303 5,500 -857 Descending FlightAware
06:20PM -22.8890 -43.4000 51° Northeast 248 285 5,300 -429 Descending FlightAware
06:20PM -22.8720 -43.3750 54° Northeast 238 274 5,100 -480 Descending FlightAware
06:21PM -22.8680 -43.3540 78° East 244 281 4,900 -811 Descending FlightAware
06:21PM -22.8740 -43.3300 105° East 241 277 4,600 -811 Descending FlightAware
06:21PM -22.8780 -43.3120 104° East 239 275 4,400 -600 Descending FlightAware
06:22PM -22.8840 -43.2820 102° East 227 261 4,200 -490 Descending FlightAware
06:22PM -22.8890 -43.2580 103° East 214 246 4,000 -727 Descending FlightAware
06:22PM -22.8910 -43.2500 105° East 205 236 3,800 -1,125 Descending FlightAware
06:23PM -22.8960 -43.2260 103° East 189 217 3,400 -923 Descending FlightAware
06:23PM -22.8990 -43.2130 104° East 181 208 3,200 -1,077 Descending FlightAware
06:23PM -22.9040 -43.1910 104° East 172 198 2,700 -1,125 Descending FlightAware
06:23PM -22.9050 -43.1880 110° East 168 193 2,600 -1,333 Descending FlightAware
06:24PM -22.9110 -43.1650 106° East 156 180 2,100 -1,149 Descending FlightAware
06:24PM -22.9080 -43.1450 81° East 140 161 1,700 -833 Descending FlightAware
06:24PM -22.9070 -43.1400 78° East 133 153 1,600 -500 Descending FlightAware
06:24PM -22.9060 -43.1370 70° East 131 151 1,600  Level FlightAware
06:24PM -22.9030 -43.1330 51° Northeast 127 146 1,600 -375 Level FlightAware
06:25PM -22.8990 -43.1300 35° Northeast 126 145 1,500 -375 Descending FlightAware
06:25PM -22.8950 -43.1280 25° Northeast 125 144 1,500 -375 Level FlightAware
06:25PM -22.8910 -43.1270 13° North 126 145 1,400 -800 Descending FlightAware
06:25PM -22.8790 -43.1320 339° North 128 147 1,100 -750 Descending FlightAware
06:25PM -22.8750 -43.1380 306° West 137 158 1,000 -667 Descending FlightAware
06:26PM -22.8740 -43.1440 280° West 143 165 900 -545 Descending FlightAware
06:26PM -22.8730 -43.1530 277° West 143 165 800 -353 Descending FlightAware
06:26PM -22.8770 -43.1620 244° Southwest 147 169 700 -214 Descending FlightAware
06:26PM -22.8810 -43.1650 215° Southwest 142 163 700 -375 Level FlightAware
06:26PM -22.8870 -43.1650 180° South 144 166 600 -167 Descending FlightAware
06:27PM -22.9020 -43.1690 194° South 144 166 600  Level FlightAware

Login

Don't have an account? Register now (free) for customized features, flight alerts, and more!